sensor_id;sensor_type;location;lat;lon;timestamp;temperature;humidity
11772;DHT22;12556;55.748;13.194;2022-12-31T00:01:21;6.90;99.90
11772;DHT22;12556;55.748;13.194;2022-12-31T00:03:49;6.90;99.90
11772;DHT22;12556;55.748;13.194;2022-12-31T00:06:19;7.00;99.90
11772;DHT22;12556;55.748;13.194;2022-12-31T00:08:47;7.00;99.90
11772;DHT22;12556;55.748;13.194;2022-12-31T00:11:16;7.10;99.90
11772;DHT22;12556;55.748;13.194;2022-12-31T00:13:43;7.10;99.90
11772;DHT22;12556;55.748;13.194;2022-12-31T00:16:13;7.10;99.90
11772;DHT22;12556;55.748;13.194;2022-12-31T00:18:43;7.20;99.90
11772;DHT22;12556;55.748;13.194;2022-12-31T00:21:10;7.20;99.90
11772;DHT22;12556;55.748;13.194;2022-12-31T00:23:37;7.30;99.90
11772;DHT22;12556;55.748;13.194;2022-12-31T00:26:06;7.30;99.90
11772;DHT22;12556;55.748;13.194;2022-12-31T00:28:35;7.40;99.90
11772;DHT22;12556;55.748;13.194;2022-12-31T00:31:05;7.40;99.90
11772;DHT22;12556;55.748;13.194;2022-12-31T00:33:32;7.40;99.90
11772;DHT22;12556;55.748;13.194;2022-12-31T00:36:07;7.50;99.90
11772;DHT22;12556;55.748;13.194;2022-12-31T00:38:35;7.50;99.90
11772;DHT22;12556;55.748;13.194;2022-12-31T00:41:02;7.50;99.90
11772;DHT22;12556;55.748;13.194;2022-12-31T00:43:29;7.60;99.90
11772;DHT22;12556;55.748;13.194;2022-12-31T00:45:58;7.60;99.90
11772;DHT22;12556;55.748;13.194;2022-12-31T00:48:25;7.60;99.90
11772;DHT22;12556;55.748;13.194;2022-12-31T00:50:52;7.70;99.90
11772;DHT22;12556;55.748;13.194;2022-12-31T00:53:20;7.70;99.90
11772;DHT22;12556;55.748;13.194;2022-12-31T00:55:47;7.70;99.90
11772;DHT22;12556;55.748;13.194;2022-12-31T00:58:14;7.80;99.90
11772;DHT22;12556;55.748;13.194;2022-12-31T01:00:41;7.80;99.90
11772;DHT22;12556;55.748;13.194;2022-12-31T01:03:10;7.80;99.90
11772;DHT22;12556;55.748;13.194;2022-12-31T01:05:37;7.80;99.90
11772;DHT22;12556;55.748;13.194;2022-12-31T01:08:05;7.90;99.90
11772;DHT22;12556;55.748;13.194;2022-12-31T01:10:32;7.90;99.90
11772;DHT22;12556;55.748;13.194;2022-12-31T01:13:16;7.90;99.90
11772;DHT22;12556;55.748;13.194;2022-12-31T01:15:43;7.90;99.90
11772;DHT22;12556;55.748;13.194;2022-12-31T01:18:12;7.90;99.90
11772;DHT22;12556;55.748;13.194;2022-12-31T01:20:41;7.90;99.90
11772;DHT22;12556;55.748;13.194;2022-12-31T01:23:09;8.00;99.90
11772;DHT22;12556;55.748;13.194;2022-12-31T01:25:37;8.00;99.90
11772;DHT22;12556;55.748;13.194;2022-12-31T01:28:05;8.00;99.90
11772;DHT22;12556;55.748;13.194;2022-12-31T01:30:32;8.10;99.90
11772;DHT22;12556;55.748;13.194;2022-12-31T01:32:59;8.20;99.90
11772;DHT22;12556;55.748;13.194;2022-12-31T01:35:27;8.20;99.90
11772;DHT22;12556;55.748;13.194;2022-12-31T01:37:54;8.30;99.90
11772;DHT22;12556;55.748;13.194;2022-12-31T01:40:21;8.30;99.90
11772;DHT22;12556;55.748;13.194;2022-12-31T01:42:53;8.40;99.90
11772;DHT22;12556;55.748;13.194;2022-12-31T01:45:20;8.40;99.90
11772;DHT22;12556;55.748;13.194;2022-12-31T01:47:49;8.40;99.90
11772;DHT22;12556;55.748;13.194;2022-12-31T01:50:19;8.50;99.90
11772;DHT22;12556;55.748;13.194;2022-12-31T01:52:50;8.50;99.90
11772;DHT22;12556;55.748;13.194;2022-12-31T01:55:21;8.50;99.90
11772;DHT22;12556;55.748;13.194;2022-12-31T01:57:53;8.50;99.90
11772;DHT22;12556;55.748;13.194;2022-12-31T02:00:20;8.60;99.90
11772;DHT22;12556;55.748;13.194;2022-12-31T02:02:47;8.60;99.90
11772;DHT22;12556;55.748;13.194;2022-12-31T02:05:18;8.60;99.90
11772;DHT22;12556;55.748;13.194;2022-12-31T02:07:49;8.60;99.90
11772;DHT22;12556;55.748;13.194;2022-12-31T02:10:17;8.60;99.90
11772;DHT22;12556;55.748;13.194;2022-12-31T02:12:45;8.60;99.90
11772;DHT22;12556;55.748;13.194;2022-12-31T02:15:12;8.60;99.90
11772;DHT22;12556;55.748;13.194;2022-12-31T02:17:44;8.60;99.90
11772;DHT22;12556;55.748;13.194;2022-12-31T02:20:36;8.60;99.90
11772;DHT22;12556;55.748;13.194;2022-12-31T02:26:41;8.60;99.90
11772;DHT22;12556;55.748;13.194;2022-12-31T02:32:34;8.50;99.90
11772;DHT22;12556;55.748;13.194;2022-12-31T02:35:07;8.50;99.90
11772;DHT22;12556;55.748;13.194;2022-12-31T02:37:37;8.40;99.90
11772;DHT22;12556;55.748;13.194;2022-12-31T02:40:08;8.50;99.90
11772;DHT22;12556;55.748;13.194;2022-12-31T02:42:35;8.40;99.90
11772;DHT22;12556;55.748;13.194;2022-12-31T02:45:02;8.40;99.90
11772;DHT22;12556;55.748;13.194;2022-12-31T02:47:41;8.40;99.90
11772;DHT22;12556;55.748;13.194;2022-12-31T02:50:26;8.40;99.90
11772;DHT22;12556;55.748;13.194;2022-12-31T02:53:01;8.40;99.90
11772;DHT22;12556;55.748;13.194;2022-12-31T02:55:40;8.40;99.90
11772;DHT22;12556;55.748;13.194;2022-12-31T02:58:14;8.40;99.90
11772;DHT22;12556;55.748;13.194;2022-12-31T03:00:48;8.40;99.90
11772;DHT22;12556;55.748;13.194;2022-12-31T03:03:34;8.40;99.90
11772;DHT22;12556;55.748;13.194;2022-12-31T03:06:03;8.40;99.90
11772;DHT22;12556;55.748;13.194;2022-12-31T03:08:32;8.40;99.90
11772;DHT22;12556;55.748;13.194;2022-12-31T03:11:19;8.50;99.90
11772;DHT22;12556;55.748;13.194;2022-12-31T03:14:00;8.40;99.90
11772;DHT22;12556;55.748;13.194;2022-12-31T03:16:27;8.40;99.90
11772;DHT22;12556;55.748;13.194;2022-12-31T03:18:55;8.40;99.90
11772;DHT22;12556;55.748;13.194;2022-12-31T03:21:40;8.40;99.90
11772;DHT22;12556;55.748;13.194;2022-12-31T03:24:23;8.40;99.90
11772;DHT22;12556;55.748;13.194;2022-12-31T03:27:08;8.40;99.90
11772;DHT22;12556;55.748;13.194;2022-12-31T03:29:35;8.40;99.90
11772;DHT22;12556;55.748;13.194;2022-12-31T03:32:02;8.40;99.90
11772;DHT22;12556;55.748;13.194;2022-12-31T03:34:30;8.50;99.90
11772;DHT22;12556;55.748;13.194;2022-12-31T03:36:57;8.50;99.90
11772;DHT22;12556;55.748;13.194;2022-12-31T03:39:24;8.50;99.90
11772;DHT22;12556;55.748;13.194;2022-12-31T03:41:51;8.50;99.90
11772;DHT22;12556;55.748;13.194;2022-12-31T03:44:18;8.50;99.90
11772;DHT22;12556;55.748;13.194;2022-12-31T03:46:45;8.50;99.90
11772;DHT22;12556;55.748;13.194;2022-12-31T03:49:11;8.50;99.90
11772;DHT22;12556;55.748;13.194;2022-12-31T03:51:40;8.50;99.90
11772;DHT22;12556;55.748;13.194;2022-12-31T03:54:07;8.50;99.90
11772;DHT22;12556;55.748;13.194;2022-12-31T03:56:33;8.50;99.90
11772;DHT22;12556;55.748;13.194;2022-12-31T03:59:00;8.60;99.90
11772;DHT22;12556;55.748;13.194;2022-12-31T04:01:27;8.60;99.90
11772;DHT22;12556;55.748;13.194;2022-12-31T04:03:54;9.20;99.90
11772;DHT22;12556;55.748;13.194;2022-12-31T04:06:21;8.60;99.90
11772;DHT22;12556;55.748;13.194;2022-12-31T04:08:49;8.60;99.90
11772;DHT22;12556;55.748;13.194;2022-12-31T04:11:16;8.60;99.90
11772;DHT22;12556;55.748;13.194;2022-12-31T04:13:43;8.90;99.90
11772;DHT22;12556;55.748;13.194;2022-12-31T04:16:10;8.60;99.90
11772;DHT22;12556;55.748;13.194;2022-12-31T04:18:36;8.60;99.90
11772;DHT22;12556;55.748;13.194;2022-12-31T04:21:04;8.60;99.90
11772;DHT22;12556;55.748;13.194;2022-12-31T04:23:31;8.50;99.90
11772;DHT22;12556;55.748;13.194;2022-12-31T04:26:00;8.50;99.90
11772;DHT22;12556;55.748;13.194;2022-12-31T04:28:26;8.50;99.90
11772;DHT22;12556;55.748;13.194;2022-12-31T04:30:53;8.50;99.90
11772;DHT22;12556;55.748;13.194;2022-12-31T04:33:20;8.50;99.90
11772;DHT22;12556;55.748;13.194;2022-12-31T04:35:47;8.50;99.90
11772;DHT22;12556;55.748;13.194;2022-12-31T04:38:14;8.40;99.90
11772;DHT22;12556;55.748;13.194;2022-12-31T04:40:41;8.40;99.90
11772;DHT22;12556;55.748;13.194;2022-12-31T04:43:25;8.40;99.90
11772;DHT22;12556;55.748;13.194;2022-12-31T04:45:52;8.40;99.90
11772;DHT22;12556;55.748;13.194;2022-12-31T04:48:19;8.40;99.90
11772;DHT22;12556;55.748;13.194;2022-12-31T04:50:46;8.40;99.90
11772;DHT22;12556;55.748;13.194;2022-12-31T04:53:13;8.40;99.90
11772;DHT22;12556;55.748;13.194;2022-12-31T04:55:40;8.40;99.90
11772;DHT22;12556;55.748;13.194;2022-12-31T04:58:07;8.40;99.90
11772;DHT22;12556;55.748;13.194;2022-12-31T05:00:35;8.40;99.90
11772;DHT22;12556;55.748;13.194;2022-12-31T05:03:02;8.40;99.90
11772;DHT22;12556;55.748;13.194;2022-12-31T05:05:29;8.40;99.90
11772;DHT22;12556;55.748;13.194;2022-12-31T05:07:56;8.40;99.90
11772;DHT22;12556;55.748;13.194;2022-12-31T05:10:22;8.40;99.90
11772;DHT22;12556;55.748;13.194;2022-12-31T05:12:49;8.40;99.90
11772;DHT22;12556;55.748;13.194;2022-12-31T05:15:16;8.40;99.90
11772;DHT22;12556;55.748;13.194;2022-12-31T05:17:44;8.40;99.90
11772;DHT22;12556;55.748;13.194;2022-12-31T05:20:11;8.40;99.90
11772;DHT22;12556;55.748;13.194;2022-12-31T05:22:38;8.40;99.90
11772;DHT22;12556;55.748;13.194;2022-12-31T05:25:06;8.40;99.90
11772;DHT22;12556;55.748;13.194;2022-12-31T05:27:33;8.40;99.90
11772;DHT22;12556;55.748;13.194;2022-12-31T05:30:02;8.40;99.90
11772;DHT22;12556;55.748;13.194;2022-12-31T05:32:29;8.40;99.90
11772;DHT22;12556;55.748;13.194;2022-12-31T05:34:58;8.40;99.90
11772;DHT22;12556;55.748;13.194;2022-12-31T05:37:26;8.40;99.90
11772;DHT22;12556;55.748;13.194;2022-12-31T05:39:53;8.40;99.90
11772;DHT22;12556;55.748;13.194;2022-12-31T05:42:20;8.40;99.90
11772;DHT22;12556;55.748;13.194;2022-12-31T05:44:47;8.40;99.90
11772;DHT22;12556;55.748;13.194;2022-12-31T05:47:15;8.40;99.90
11772;DHT22;12556;55.748;13.194;2022-12-31T05:49:42;8.40;99.90
11772;DHT22;12556;55.748;13.194;2022-12-31T05:52:10;8.40;99.90
11772;DHT22;12556;55.748;13.194;2022-12-31T05:54:37;8.40;99.90
11772;DHT22;12556;55.748;13.194;2022-12-31T05:57:05;8.40;99.90
11772;DHT22;12556;55.748;13.194;2022-12-31T05:59:32;8.40;99.90
11772;DHT22;12556;55.748;13.194;2022-12-31T06:01:59;8.40;99.90
11772;DHT22;12556;55.748;13.194;2022-12-31T06:04:26;8.40;99.90
11772;DHT22;12556;55.748;13.194;2022-12-31T06:06:53;8.40;99.90
11772;DHT22;12556;55.748;13.194;2022-12-31T06:09:22;8.40;99.90
11772;DHT22;12556;55.748;13.194;2022-12-31T06:11:49;8.40;99.90
11772;DHT22;12556;55.748;13.194;2022-12-31T06:14:16;8.40;99.90
11772;DHT22;12556;55.748;13.194;2022-12-31T06:16:43;8.40;99.90
11772;DHT22;12556;55.748;13.194;2022-12-31T06:19:10;8.40;99.90
11772;DHT22;12556;55.748;13.194;2022-12-31T06:21:37;8.40;99.90
11772;DHT22;12556;55.748;13.194;2022-12-31T06:24:04;8.40;99.90
11772;DHT22;12556;55.748;13.194;2022-12-31T06:26:33;8.40;99.90
11772;DHT22;12556;55.748;13.194;2022-12-31T06:29:00;8.40;99.90
11772;DHT22;12556;55.748;13.194;2022-12-31T06:31:27;8.30;99.90
11772;DHT22;12556;55.748;13.194;2022-12-31T06:33:54;8.30;99.90
11772;DHT22;12556;55.748;13.194;2022-12-31T06:36:21;8.30;99.90
11772;DHT22;12556;55.748;13.194;2022-12-31T06:38:48;8.30;99.90
11772;DHT22;12556;55.748;13.194;2022-12-31T06:41:16;8.30;99.90
11772;DHT22;12556;55.748;13.194;2022-12-31T06:43:44;8.30;99.90
11772;DHT22;12556;55.748;13.194;2022-12-31T06:46:13;8.30;99.90
11772;DHT22;12556;55.748;13.194;2022-12-31T06:48:41;8.30;99.90
11772;DHT22;12556;55.748;13.194;2022-12-31T06:51:11;8.30;99.90
11772;DHT22;12556;55.748;13.194;2022-12-31T06:53:38;8.30;99.90
11772;DHT22;12556;55.748;13.194;2022-12-31T06:56:06;8.30;99.90
11772;DHT22;12556;55.748;13.194;2022-12-31T06:58:34;8.30;99.90
11772;DHT22;12556;55.748;13.194;2022-12-31T07:01:08;8.30;99.90
11772;DHT22;12556;55.748;13.194;2022-12-31T07:03:40;8.40;99.90
11772;DHT22;12556;55.748;13.194;2022-12-31T07:06:12;8.30;99.90
11772;DHT22;12556;55.748;13.194;2022-12-31T07:08:46;8.30;99.90
11772;DHT22;12556;55.748;13.194;2022-12-31T07:11:20;8.30;99.90
11772;DHT22;12556;55.748;13.194;2022-12-31T07:13:58;8.30;99.90
11772;DHT22;12556;55.748;13.194;2022-12-31T07:16:44;8.30;99.90
11772;DHT22;12556;55.748;13.194;2022-12-31T07:19:22;8.40;99.90
11772;DHT22;12556;55.748;13.194;2022-12-31T07:21:53;8.40;99.90
11772;DHT22;12556;55.748;13.194;2022-12-31T07:24:21;8.40;99.90
11772;DHT22;12556;55.748;13.194;2022-12-31T07:27:04;8.40;99.90
11772;DHT22;12556;55.748;13.194;2022-12-31T07:29:44;8.40;99.90
11772;DHT22;12556;55.748;13.194;2022-12-31T07:32:29;8.70;99.90
11772;DHT22;12556;55.748;13.194;2022-12-31T07:35:04;8.50;99.90
11772;DHT22;12556;55.748;13.194;2022-12-31T07:37:41;8.50;99.90
11772;DHT22;12556;55.748;13.194;2022-12-31T07:40:15;8.50;99.90
11772;DHT22;12556;55.748;13.194;2022-12-31T07:42:57;8.60;99.90
11772;DHT22;12556;55.748;13.194;2022-12-31T07:45:32;8.60;99.90
11772;DHT22;12556;55.748;13.194;2022-12-31T07:48:03;8.60;99.90
11772;DHT22;12556;55.748;13.194;2022-12-31T07:50:40;8.60;99.90
11772;DHT22;12556;55.748;13.194;2022-12-31T07:53:07;8.60;99.90
11772;DHT22;12556;55.748;13.194;2022-12-31T07:55:35;8.60;99.90
11772;DHT22;12556;55.748;13.194;2022-12-31T07:58:07;8.60;99.90
11772;DHT22;12556;55.748;13.194;2022-12-31T08:00:37;8.60;99.90
11772;DHT22;12556;55.748;13.194;2022-12-31T08:03:15;8.60;99.90
11772;DHT22;12556;55.748;13.194;2022-12-31T08:05:52;8.60;99.90
11772;DHT22;12556;55.748;13.194;2022-12-31T08:08:28;8.60;99.90
11772;DHT22;12556;55.748;13.194;2022-12-31T08:11:05;8.70;99.90
11772;DHT22;12556;55.748;13.194;2022-12-31T08:13:34;8.70;99.90
11772;DHT22;12556;55.748;13.194;2022-12-31T08:16:02;8.70;99.90
11772;DHT22;12556;55.748;13.194;2022-12-31T08:18:31;8.70;99.90
11772;DHT22;12556;55.748;13.194;2022-12-31T08:21:15;8.70;99.90
11772;DHT22;12556;55.748;13.194;2022-12-31T08:23:52;8.70;99.90
11772;DHT22;12556;55.748;13.194;2022-12-31T08:26:26;8.70;99.90
11772;DHT22;12556;55.748;13.194;2022-12-31T08:29:07;8.70;99.90
11772;DHT22;12556;55.748;13.194;2022-12-31T08:31:43;8.80;99.90
11772;DHT22;12556;55.748;13.194;2022-12-31T08:34:21;8.80;99.90
11772;DHT22;12556;55.748;13.194;2022-12-31T08:36:54;8.80;99.90
11772;DHT22;12556;55.748;13.194;2022-12-31T08:42:18;8.80;99.90
11772;DHT22;12556;55.748;13.194;2022-12-31T08:44:52;8.80;99.90
11772;DHT22;12556;55.748;13.194;2022-12-31T08:47:26;8.80;99.90
11772;DHT22;12556;55.748;13.194;2022-12-31T08:49:58;8.90;99.90
11772;DHT22;12556;55.748;13.194;2022-12-31T08:52:26;8.80;99.90
11772;DHT22;12556;55.748;13.194;2022-12-31T08:54:53;8.80;99.90
11772;DHT22;12556;55.748;13.194;2022-12-31T08:57:25;8.90;99.90
11772;DHT22;12556;55.748;13.194;2022-12-31T09:00:03;8.90;99.90
11772;DHT22;12556;55.748;13.194;2022-12-31T09:02:51;8.90;99.90
11772;DHT22;12556;55.748;13.194;2022-12-31T09:05:25;8.90;99.90
11772;DHT22;12556;55.748;13.194;2022-12-31T09:08:07;8.90;99.90
11772;DHT22;12556;55.748;13.194;2022-12-31T09:10:41;8.90;99.90
11772;DHT22;12556;55.748;13.194;2022-12-31T09:13:16;8.90;99.90
11772;DHT22;12556;55.748;13.194;2022-12-31T09:15:50;8.90;99.90
11772;DHT22;12556;55.748;13.194;2022-12-31T09:18:18;9.00;99.90
11772;DHT22;12556;55.748;13.194;2022-12-31T09:20:47;8.90;99.90
11772;DHT22;12556;55.748;13.194;2022-12-31T09:23:14;9.00;99.90
11772;DHT22;12556;55.748;13.194;2022-12-31T09:25:45;8.90;99.90
11772;DHT22;12556;55.748;13.194;2022-12-31T09:28:17;8.90;99.90
11772;DHT22;12556;55.748;13.194;2022-12-31T09:30:52;9.00;99.90
11772;DHT22;12556;55.748;13.194;2022-12-31T09:33:35;9.00;99.90
11772;DHT22;12556;55.748;13.194;2022-12-31T09:36:07;9.10;99.90
11772;DHT22;12556;55.748;13.194;2022-12-31T09:38:40;9.00;99.90
11772;DHT22;12556;55.748;13.194;2022-12-31T09:41:28;9.10;99.90
11772;DHT22;12556;55.748;13.194;2022-12-31T09:47:26;9.10;99.90
11772;DHT22;12556;55.748;13.194;2022-12-31T09:56:07;9.20;99.90
11772;DHT22;12556;55.748;13.194;2022-12-31T09:58:43;9.20;99.90
11772;DHT22;12556;55.748;13.194;2022-12-31T10:01:20;9.20;99.90
11772;DHT22;12556;55.748;13.194;2022-12-31T10:04:18;9.30;99.90
11772;DHT22;12556;55.748;13.194;2022-12-31T10:06:58;9.30;99.90
11772;DHT22;12556;55.748;13.194;2022-12-31T10:09:54;9.30;99.90
11772;DHT22;12556;55.748;13.194;2022-12-31T10:13:00;9.30;99.90
11772;DHT22;12556;55.748;13.194;2022-12-31T10:15:47;9.40;99.90
11772;DHT22;12556;55.748;13.194;2022-12-31T10:18:31;9.40;99.90
11772;DHT22;12556;55.748;13.194;2022-12-31T10:21:13;9.40;99.90
11772;DHT22;12556;55.748;13.194;2022-12-31T10:24:03;9.40;99.90
11772;DHT22;12556;55.748;13.194;2022-12-31T10:26:47;9.40;99.90
11772;DHT22;12556;55.748;13.194;2022-12-31T10:29:24;9.40;99.90
11772;DHT22;12556;55.748;13.194;2022-12-31T10:32:03;9.50;99.90
11772;DHT22;12556;55.748;13.194;2022-12-31T10:34:52;9.50;99.90
11772;DHT22;12556;55.748;13.194;2022-12-31T10:37:23;9.50;99.90
11772;DHT22;12556;55.748;13.194;2022-12-31T10:39:59;9.50;99.90
11772;DHT22;12556;55.748;13.194;2022-12-31T10:42:51;9.50;99.90
11772;DHT22;12556;55.748;13.194;2022-12-31T10:52:05;9.60;99.90
11772;DHT22;12556;55.748;13.194;2022-12-31T10:54:56;9.60;99.90
11772;DHT22;12556;55.748;13.194;2022-12-31T11:00:33;9.60;99.90
11772;DHT22;12556;55.748;13.194;2022-12-31T11:03:30;9.60;99.90
11772;DHT22;12556;55.748;13.194;2022-12-31T11:06:49;9.70;99.90
11772;DHT22;12556;55.748;13.194;2022-12-31T11:09:53;9.70;99.90
11772;DHT22;12556;55.748;13.194;2022-12-31T11:12:48;9.70;99.90
11772;DHT22;12556;55.748;13.194;2022-12-31T11:15:37;9.80;99.90
11772;DHT22;12556;55.748;13.194;2022-12-31T11:18:19;9.80;99.90
11772;DHT22;12556;55.748;13.194;2022-12-31T11:21:05;9.80;99.90
11772;DHT22;12556;55.748;13.194;2022-12-31T11:23:40;9.80;99.90
11772;DHT22;12556;55.748;13.194;2022-12-31T11:26:16;9.80;99.90
11772;DHT22;12556;55.748;13.194;2022-12-31T11:29:11;9.80;99.90
11772;DHT22;12556;55.748;13.194;2022-12-31T11:31:54;9.80;99.90
11772;DHT22;12556;55.748;13.194;2022-12-31T11:34:47;9.80;99.90
11772;DHT22;12556;55.748;13.194;2022-12-31T11:37:28;9.80;99.90
11772;DHT22;12556;55.748;13.194;2022-12-31T11:40:07;9.80;99.90
11772;DHT22;12556;55.748;13.194;2022-12-31T11:42:45;9.80;99.90
11772;DHT22;12556;55.748;13.194;2022-12-31T11:45:23;9.80;99.90
11772;DHT22;12556;55.748;13.194;2022-12-31T11:48:01;9.80;99.90
11772;DHT22;12556;55.748;13.194;2022-12-31T11:50:37;9.80;99.90
11772;DHT22;12556;55.748;13.194;2022-12-31T11:53:19;9.90;99.90
11772;DHT22;12556;55.748;13.194;2022-12-31T11:56:07;9.80;99.90
11772;DHT22;12556;55.748;13.194;2022-12-31T11:58:36;9.80;99.90
11772;DHT22;12556;55.748;13.194;2022-12-31T12:01:08;9.80;99.90
11772;DHT22;12556;55.748;13.194;2022-12-31T12:03:37;9.90;99.90
11772;DHT22;12556;55.748;13.194;2022-12-31T12:06:11;9.80;99.90
11772;DHT22;12556;55.748;13.194;2022-12-31T12:08:38;9.80;99.90
11772;DHT22;12556;55.748;13.194;2022-12-31T12:11:09;9.80;99.90
11772;DHT22;12556;55.748;13.194;2022-12-31T12:13:39;9.80;99.90
11772;DHT22;12556;55.748;13.194;2022-12-31T12:16:06;9.80;99.90
11772;DHT22;12556;55.748;13.194;2022-12-31T12:18:35;9.80;99.90
11772;DHT22;12556;55.748;13.194;2022-12-31T12:21:09;9.80;99.90
11772;DHT22;12556;55.748;13.194;2022-12-31T12:23:37;9.80;99.90
11772;DHT22;12556;55.748;13.194;2022-12-31T12:26:04;9.70;99.90
11772;DHT22;12556;55.748;13.194;2022-12-31T12:28:42;9.70;99.90
11772;DHT22;12556;55.748;13.194;2022-12-31T12:31:17;9.70;99.90
11772;DHT22;12556;55.748;13.194;2022-12-31T12:33:45;9.70;99.90
11772;DHT22;12556;55.748;13.194;2022-12-31T12:36:15;9.70;99.90
11772;DHT22;12556;55.748;13.194;2022-12-31T12:38:43;9.70;99.90
11772;DHT22;12556;55.748;13.194;2022-12-31T12:41:17;9.70;99.90
11772;DHT22;12556;55.748;13.194;2022-12-31T12:43:44;9.70;99.90
11772;DHT22;12556;55.748;13.194;2022-12-31T12:46:19;9.70;99.90
11772;DHT22;12556;55.748;13.194;2022-12-31T12:48:48;9.70;99.90
11772;DHT22;12556;55.748;13.194;2022-12-31T12:54:15;9.70;99.90
11772;DHT22;12556;55.748;13.194;2022-12-31T12:56:48;9.70;99.90
11772;DHT22;12556;55.748;13.194;2022-12-31T12:59:42;9.70;99.90
11772;DHT22;12556;55.748;13.194;2022-12-31T13:02:25;9.60;99.90
11772;DHT22;12556;55.748;13.194;2022-12-31T13:05:07;9.70;99.90
11772;DHT22;12556;55.748;13.194;2022-12-31T13:07:50;9.60;99.90
11772;DHT22;12556;55.748;13.194;2022-12-31T13:13:25;9.60;99.90
11772;DHT22;12556;55.748;13.194;2022-12-31T13:15:58;9.60;99.90
11772;DHT22;12556;55.748;13.194;2022-12-31T13:18:42;9.60;99.90
11772;DHT22;12556;55.748;13.194;2022-12-31T13:21:34;9.60;99.90
11772;DHT22;12556;55.748;13.194;2022-12-31T13:24:09;9.60;99.90
11772;DHT22;12556;55.748;13.194;2022-12-31T13:26:43;9.60;99.90
11772;DHT22;12556;55.748;13.194;2022-12-31T13:29:17;9.60;99.90
11772;DHT22;12556;55.748;13.194;2022-12-31T13:31:46;9.60;99.90
11772;DHT22;12556;55.748;13.194;2022-12-31T13:34:17;9.60;99.90
11772;DHT22;12556;55.748;13.194;2022-12-31T13:36:47;9.60;99.90
11772;DHT22;12556;55.748;13.194;2022-12-31T13:39:21;9.60;99.90
11772;DHT22;12556;55.748;13.194;2022-12-31T13:41:52;9.60;99.90
11772;DHT22;12556;55.748;13.194;2022-12-31T13:44:25;9.60;99.90
11772;DHT22;12556;55.748;13.194;2022-12-31T13:46:56;9.60;99.90
11772;DHT22;12556;55.748;13.194;2022-12-31T13:49:30;9.60;99.90
11772;DHT22;12556;55.748;13.194;2022-12-31T13:52:00;9.60;99.90
11772;DHT22;12556;55.748;13.194;2022-12-31T13:54:35;9.60;99.90
11772;DHT22;12556;55.748;13.194;2022-12-31T13:57:07;9.60;99.90
11772;DHT22;12556;55.748;13.194;2022-12-31T13:59:39;9.50;99.90
11772;DHT22;12556;55.748;13.194;2022-12-31T14:02:25;9.50;99.90
11772;DHT22;12556;55.748;13.194;2022-12-31T14:04:59;9.60;99.90
11772;DHT22;12556;55.748;13.194;2022-12-31T14:07:33;9.50;99.90
11772;DHT22;12556;55.748;13.194;2022-12-31T14:10:10;9.50;99.90
11772;DHT22;12556;55.748;13.194;2022-12-31T14:12:42;9.50;99.90
11772;DHT22;12556;55.748;13.194;2022-12-31T14:15:17;9.50;99.90
11772;DHT22;12556;55.748;13.194;2022-12-31T14:17:47;9.60;99.90
11772;DHT22;12556;55.748;13.194;2022-12-31T14:20:23;9.60;99.90
11772;DHT22;12556;55.748;13.194;2022-12-31T14:22:59;9.50;99.90
11772;DHT22;12556;55.748;13.194;2022-12-31T14:25:33;9.50;99.90
11772;DHT22;12556;55.748;13.194;2022-12-31T14:28:03;9.50;99.90
11772;DHT22;12556;55.748;13.194;2022-12-31T14:30:35;9.50;99.90
11772;DHT22;12556;55.748;13.194;2022-12-31T14:33:24;9.50;99.90
11772;DHT22;12556;55.748;13.194;2022-12-31T14:36:05;9.50;99.90
11772;DHT22;12556;55.748;13.194;2022-12-31T14:38:48;9.50;99.90
11772;DHT22;12556;55.748;13.194;2022-12-31T14:41:30;9.50;99.90
11772;DHT22;12556;55.748;13.194;2022-12-31T14:44:09;9.50;99.90
11772;DHT22;12556;55.748;13.194;2022-12-31T14:46:43;9.50;99.90
11772;DHT22;12556;55.748;13.194;2022-12-31T14:49:31;9.40;99.90
11772;DHT22;12556;55.748;13.194;2022-12-31T14:52:07;9.50;99.90
11772;DHT22;12556;55.748;13.194;2022-12-31T14:54:35;9.50;99.90
11772;DHT22;12556;55.748;13.194;2022-12-31T14:57:10;9.50;99.90
11772;DHT22;12556;55.748;13.194;2022-12-31T14:59:51;9.50;99.90
11772;DHT22;12556;55.748;13.194;2022-12-31T15:02:26;9.50;99.90
11772;DHT22;12556;55.748;13.194;2022-12-31T15:05:12;9.50;99.90
11772;DHT22;12556;55.748;13.194;2022-12-31T15:07:46;9.50;99.90
11772;DHT22;12556;55.748;13.194;2022-12-31T15:10:20;9.50;99.90
11772;DHT22;12556;55.748;13.194;2022-12-31T15:13:01;9.40;99.90
11772;DHT22;12556;55.748;13.194;2022-12-31T15:15:55;9.50;99.90
11772;DHT22;12556;55.748;13.194;2022-12-31T15:18:32;9.50;99.90
11772;DHT22;12556;55.748;13.194;2022-12-31T15:21:19;9.40;99.90
11772;DHT22;12556;55.748;13.194;2022-12-31T15:23:51;9.50;99.90
11772;DHT22;12556;55.748;13.194;2022-12-31T15:26:20;9.40;99.90
11772;DHT22;12556;55.748;13.194;2022-12-31T15:28:58;9.40;99.90
11772;DHT22;12556;55.748;13.194;2022-12-31T15:31:26;9.40;99.90
11772;DHT22;12556;55.748;13.194;2022-12-31T15:33:57;9.30;99.90
11772;DHT22;12556;55.748;13.194;2022-12-31T15:36:26;9.30;99.90
11772;DHT22;12556;55.748;13.194;2022-12-31T15:39:20;9.30;99.90
11772;DHT22;12556;55.748;13.194;2022-12-31T15:41:50;9.30;99.90
11772;DHT22;12556;55.748;13.194;2022-12-31T15:44:23;9.20;99.90
11772;DHT22;12556;55.748;13.194;2022-12-31T15:46:54;9.30;99.90
11772;DHT22;12556;55.748;13.194;2022-12-31T15:49:23;9.20;99.90
11772;DHT22;12556;55.748;13.194;2022-12-31T15:51:59;9.20;99.90
11772;DHT22;12556;55.748;13.194;2022-12-31T15:54:31;9.30;99.90
11772;DHT22;12556;55.748;13.194;2022-12-31T15:57:00;9.30;99.90
11772;DHT22;12556;55.748;13.194;2022-12-31T15:59:30;9.20;99.90
11772;DHT22;12556;55.748;13.194;2022-12-31T16:01:57;9.20;99.90
11772;DHT22;12556;55.748;13.194;2022-12-31T16:04:26;9.20;99.90
11772;DHT22;12556;55.748;13.194;2022-12-31T16:06:57;9.20;99.90
11772;DHT22;12556;55.748;13.194;2022-12-31T16:09:26;9.20;99.90
11772;DHT22;12556;55.748;13.194;2022-12-31T16:11:55;9.20;99.90
11772;DHT22;12556;55.748;13.194;2022-12-31T16:14:25;9.20;99.90
11772;DHT22;12556;55.748;13.194;2022-12-31T16:16:58;9.20;99.90
11772;DHT22;12556;55.748;13.194;2022-12-31T16:19:32;9.50;99.90
11772;DHT22;12556;55.748;13.194;2022-12-31T16:22:05;9.30;99.90
11772;DHT22;12556;55.748;13.194;2022-12-31T16:24:33;9.30;99.90
11772;DHT22;12556;55.748;13.194;2022-12-31T16:27:04;9.20;99.90
11772;DHT22;12556;55.748;13.194;2022-12-31T16:29:33;9.20;99.90
11772;DHT22;12556;55.748;13.194;2022-12-31T16:32:03;9.20;99.90
11772;DHT22;12556;55.748;13.194;2022-12-31T16:34:35;9.30;99.90
11772;DHT22;12556;55.748;13.194;2022-12-31T16:37:04;9.30;99.90
11772;DHT22;12556;55.748;13.194;2022-12-31T16:39:33;9.20;99.90
11772;DHT22;12556;55.748;13.194;2022-12-31T16:42:15;9.30;99.90